Wedza, Zimbabwe

6:40 AM CAT on December 20, 2014 (GMT +0200)
Harare International | Change Station
CLOSE
Current Station
Airport
Location: Harare Kutsaga,
Elevation: 4856 ft
Nearby Weather Stations

Elev 4856 ft 17.92 °S, 31.13 °E | Updated 1 hour ago

Clear
Clear
64 °F
Feels Like 64 °F
N
1
Wind Variable Wind from NNW

Today
High -- | Low -- °F
--% Chance of Precip.
Yesterday
High -- | Low -- °F
Precip. -- in
5:13 AM 6:28 PM
Waning Crescent, 4% visible
Pressure 30.12 in
Visibility -9999.0 miles
Clouds
Dew Point 64 °F
Humidity 100%
Rainfall 0.00 in
Snow Depth Not available.
UV Not available.
Pollen Not available.
Air Quality Not available.
Flu Activity Not available.
METAR FVHA 200300Z 33001KT CAVOK 18/18 Q1020 NOSIG RMK QFE 852.6

More Conditions Fewer Conditions

Pressure 30.12 in
Visibility -9999.0 miles
Clouds
Dew Point 64 °F
Humidity 100%
Rainfall 0.00 in
Snow Depth Not available.
UV Not available.
Pollen Not available.
Air Quality Not available.
Flu Activity Not available.
METAR FVHA 200300Z 33001KT CAVOK 18/18 Q1020 NOSIG RMK QFE 852.6

More Conditions Fewer Conditions

10-Day Weather Forecast

Almanac

Astronomy

Dec. 20, 2014 Rise Set
Actual Time
Civil Twilight
Nautical Twilight
Astronomical Twilight
Moon
Length of Visible Light
Length of Day
Tomorrow will be .
, % of the Moon is Illuminated

Today's Extremes

Country Highs Country Lows

Community

WunderPhotos

Upload Photos

1,779,130 photos uploaded!

WunderBlogs® & News

Nearby

Air Quality

  Air Quality AQ Index Pollutant
Not available.

Snow Depth

Station Depth Elevation

Earthquake Activity

City Distance Mag. Time & Date
Minimum magnitude displayed is 2.5.

Coastal Water Temperatures

Place Temperature

Nearby Weather Stations